createdAt,value
2022-12-31T00:01:01.523Z,36.40
2022-12-31T00:03:29.276Z,38.40
2022-12-31T00:05:57.156Z,36.75
2022-12-31T00:08:24.672Z,40.17
2022-12-31T00:10:52.836Z,37.78
2022-12-31T00:13:20.258Z,38.78
2022-12-31T00:15:47.912Z,37.63
2022-12-31T00:18:15.700Z,39.22
2022-12-31T00:20:43.993Z,37.60
2022-12-31T00:23:12.039Z,38.95
2022-12-31T00:25:39.814Z,35.58
2022-12-31T00:28:07.111Z,38.53
2022-12-31T00:30:34.797Z,35.50
2022-12-31T00:33:02.281Z,35.83
2022-12-31T00:35:30.747Z,37.20
2022-12-31T00:37:58.138Z,33.72
2022-12-31T00:40:25.800Z,35.75
2022-12-31T00:42:53.090Z,37.03
2022-12-31T00:45:20.777Z,37.88
2022-12-31T00:47:48.087Z,34.80
2022-12-31T00:50:15.746Z,35.65
2022-12-31T00:52:43.126Z,35.50
2022-12-31T00:55:10.666Z,36.53
2022-12-31T00:57:38.175Z,34.97
2022-12-31T01:00:07.637Z,36.28
2022-12-31T01:02:35.112Z,35.65
2022-12-31T01:05:03.015Z,35.92
2022-12-31T01:07:30.931Z,37.58
2022-12-31T01:09:58.585Z,37.75
2022-12-31T01:12:25.952Z,35.85
2022-12-31T01:14:53.567Z,38.20
2022-12-31T01:17:21.042Z,36.60
2022-12-31T01:19:48.566Z,36.13
2022-12-31T01:22:16.101Z,37.45
2022-12-31T01:24:43.671Z,33.95
2022-12-31T01:27:11.010Z,38.78
2022-12-31T01:29:38.542Z,33.85
2022-12-31T01:32:06.600Z,33.90
2022-12-31T01:34:34.191Z,34.22
2022-12-31T01:37:01.820Z,35.42
2022-12-31T01:39:29.422Z,36.47
2022-12-31T01:41:58.024Z,37.65
2022-12-31T01:44:25.578Z,33.88
2022-12-31T01:46:54.902Z,33.70
2022-12-31T01:49:31.068Z,35.63
2022-12-31T01:52:32.655Z,37.15
2022-12-31T01:55:08.203Z,36.50
2022-12-31T01:57:37.734Z,34.10
2022-12-31T02:00:06.470Z,33.95
2022-12-31T02:02:34.135Z,35.08
2022-12-31T02:05:09.453Z,33.90
2022-12-31T02:07:37.099Z,36.50
2022-12-31T02:10:05.255Z,36.63
2022-12-31T02:12:32.767Z,33.60
2022-12-31T02:15:00.891Z,37.53
2022-12-31T02:17:47.739Z,35.42
2022-12-31T02:20:52.602Z,33.08
2022-12-31T02:23:36.587Z,32.58
2022-12-31T02:26:32.586Z,36.03
2022-12-31T02:29:21.351Z,31.33
2022-12-31T02:32:07.855Z,31.55
2022-12-31T02:34:46.305Z,33.13
2022-12-31T02:37:15.853Z,34.28
2022-12-31T02:39:44.121Z,31.77
2022-12-31T02:42:12.280Z,34.20
2022-12-31T02:44:41.835Z,35.38
2022-12-31T02:47:09.745Z,33.58
2022-12-31T02:49:42.405Z,33.08
2022-12-31T02:52:36.620Z,33.65
2022-12-31T02:55:25.688Z,33.63
2022-12-31T02:58:18.201Z,31.23
2022-12-31T03:01:10.650Z,32.92
2022-12-31T03:03:39.434Z,32.30
2022-12-31T03:06:08.963Z,34.47
2022-12-31T03:08:56.683Z,31.90
2022-12-31T03:11:42.603Z,32.33
2022-12-31T03:14:10.275Z,31.75
2022-12-31T03:16:37.614Z,34.75
2022-12-31T03:19:23.907Z,34.13
2022-12-31T03:22:09.887Z,30.83
2022-12-31T03:24:56.607Z,31.05
2022-12-31T03:27:24.018Z,33.40
2022-12-31T03:29:51.768Z,34.45
2022-12-31T03:32:19.194Z,35.55
2022-12-31T03:34:46.861Z,30.85
2022-12-31T03:37:14.663Z,31.25
2022-12-31T03:39:42.600Z,34.83
2022-12-31T03:42:10.087Z,31.25
2022-12-31T03:44:37.652Z,31.98
2022-12-31T03:47:05.583Z,33.25
2022-12-31T03:49:33.323Z,32.40
2022-12-31T03:52:03.060Z,31.15
2022-12-31T03:54:31.032Z,31.77
2022-12-31T03:57:00.384Z,27.95
2022-12-31T03:59:28.159Z,32.45
2022-12-31T04:01:55.809Z,32.35
2022-12-31T04:04:24.152Z,31.40
2022-12-31T04:06:51.581Z,33.15
2022-12-31T04:09:19.347Z,34.45
2022-12-31T04:11:46.726Z,31.58
2022-12-31T04:14:14.725Z,30.38
2022-12-31T04:16:42.162Z,30.60
2022-12-31T04:19:11.095Z,33.15
2022-12-31T04:21:38.390Z,30.75
2022-12-31T04:24:06.992Z,28.67
2022-12-31T04:26:34.664Z,31.63
2022-12-31T04:29:03.071Z,30.38
2022-12-31T04:31:30.741Z,32.15
2022-12-31T04:33:58.451Z,28.20
2022-12-31T04:36:25.824Z,27.90
2022-12-31T04:38:53.563Z,29.80
2022-12-31T04:41:21.182Z,28.73
2022-12-31T04:43:52.732Z,27.60
2022-12-31T04:46:32.610Z,28.40
2022-12-31T04:49:02.504Z,29.15
2022-12-31T04:51:31.491Z,28.67
2022-12-31T04:53:59.363Z,26.35
2022-12-31T04:56:27.866Z,27.73
2022-12-31T04:58:55.559Z,29.48
2022-12-31T05:01:23.318Z,28.00
2022-12-31T05:03:51.400Z,29.42
2022-12-31T05:06:21.418Z,27.35
2022-12-31T05:08:49.855Z,28.58
2022-12-31T05:11:18.579Z,26.60
2022-12-31T05:13:46.528Z,30.17
2022-12-31T05:16:14.122Z,26.08
2022-12-31T05:18:41.816Z,30.33
2022-12-31T05:21:10.377Z,26.45
2022-12-31T05:23:37.989Z,25.42
2022-12-31T05:26:05.232Z,27.33
2022-12-31T05:28:32.942Z,27.02
2022-12-31T05:31:01.079Z,25.88
2022-12-31T05:33:28.875Z,26.50
2022-12-31T05:35:58.305Z,24.63
2022-12-31T05:38:26.474Z,26.52
2022-12-31T05:41:01.659Z,24.40
2022-12-31T05:43:29.631Z,23.85
2022-12-31T05:45:57.291Z,24.55
2022-12-31T05:48:24.956Z,24.42
2022-12-31T05:50:52.347Z,23.02
2022-12-31T05:53:19.940Z,24.42
2022-12-31T05:55:48.188Z,24.92
2022-12-31T05:58:16.441Z,23.30
2022-12-31T06:00:43.932Z,24.52
2022-12-31T06:03:11.693Z,26.25
2022-12-31T06:05:41.014Z,25.48
2022-12-31T06:08:09.370Z,27.85
2022-12-31T06:10:36.734Z,23.20
2022-12-31T06:13:04.770Z,25.17
2022-12-31T06:15:32.353Z,23.92
2022-12-31T06:18:00.066Z,24.52
2022-12-31T06:20:27.350Z,23.27
2022-12-31T06:22:55.094Z,22.77
2022-12-31T06:25:22.343Z,24.20
2022-12-31T06:27:50.038Z,23.08
2022-12-31T06:30:17.365Z,21.33
2022-12-31T06:32:45.221Z,22.77
2022-12-31T06:35:13.093Z,23.63
2022-12-31T06:37:41.107Z,21.02
2022-12-31T06:40:09.140Z,23.17
2022-12-31T06:42:36.964Z,22.75
2022-12-31T06:45:04.688Z,20.95
2022-12-31T06:47:32.327Z,20.27
2022-12-31T06:49:59.657Z,22.92
2022-12-31T06:52:27.284Z,22.70
2022-12-31T06:54:54.964Z,23.83
2022-12-31T06:57:23.532Z,22.85
2022-12-31T06:59:51.359Z,21.50
2022-12-31T07:02:33.935Z,23.88
2022-12-31T07:05:17.278Z,19.92
2022-12-31T07:08:05.070Z,23.00
2022-12-31T07:10:58.529Z,21.23
2022-12-31T07:14:05.123Z,22.25
2022-12-31T07:19:33.586Z,21.85
2022-12-31T07:22:02.125Z,19.88
2022-12-31T07:24:30.110Z,22.55
2022-12-31T07:27:18.559Z,20.58
2022-12-31T07:29:56.688Z,21.23
2022-12-31T07:32:42.811Z,20.52
2022-12-31T07:35:34.728Z,23.77
2022-12-31T07:38:36.798Z,21.42
2022-12-31T07:41:14.534Z,19.90
2022-12-31T07:44:06.320Z,18.42
2022-12-31T07:46:42.960Z,18.50
2022-12-31T07:49:13.800Z,19.65
2022-12-31T07:51:42.204Z,19.67
2022-12-31T07:54:13.937Z,20.77
2022-12-31T07:56:43.886Z,20.98
2022-12-31T07:59:37.368Z,18.50
2022-12-31T08:02:23.883Z,18.95
2022-12-31T08:05:12.339Z,29.13
2022-12-31T08:08:05.954Z,27.70
2022-12-31T08:10:47.721Z,25.75
2022-12-31T08:13:17.263Z,23.85
2022-12-31T08:15:44.913Z,22.27
2022-12-31T08:18:12.666Z,19.55
2022-12-31T08:21:12.132Z,21.73
2022-12-31T08:24:07.464Z,28.17
2022-12-31T08:26:53.173Z,18.95
2022-12-31T08:29:28.580Z,22.83
2022-12-31T08:32:25.781Z,20.88
2022-12-31T08:35:14.562Z,19.10
2022-12-31T08:37:48.063Z,19.35
2022-12-31T08:40:20.841Z,19.63
2022-12-31T08:43:14.388Z,21.13
2022-12-31T08:45:50.354Z,17.65
2022-12-31T08:48:40.788Z,19.38
2022-12-31T08:51:19.773Z,17.80
2022-12-31T08:53:48.433Z,21.33
2022-12-31T08:56:36.431Z,18.20
2022-12-31T08:59:18.707Z,22.13
2022-12-31T09:02:08.966Z,19.35
2022-12-31T09:05:00.002Z,14.15
2022-12-31T09:07:46.691Z,18.17
2022-12-31T09:10:33.455Z,18.52
2022-12-31T09:13:15.292Z,15.38
2022-12-31T09:15:46.532Z,16.25
2022-12-31T09:18:14.933Z,17.17
2022-12-31T09:20:44.060Z,18.35
2022-12-31T09:23:13.365Z,17.50
2022-12-31T09:26:15.834Z,17.48
2022-12-31T09:29:06.779Z,14.48
2022-12-31T09:31:34.010Z,16.80
2022-12-31T09:34:12.907Z,14.98
2022-12-31T09:36:50.579Z,14.20
2022-12-31T09:39:39.881Z,15.88
2022-12-31T09:42:19.465Z,18.60
2022-12-31T09:44:52.831Z,16.88
2022-12-31T09:47:43.368Z,14.32
2022-12-31T09:50:36.376Z,16.20
2022-12-31T09:53:24.539Z,16.95
2022-12-31T09:56:11.444Z,15.93
2022-12-31T09:59:08.673Z,16.67
2022-12-31T10:01:53.612Z,14.98
2022-12-31T10:04:48.210Z,15.57
2022-12-31T10:07:34.741Z,13.13
2022-12-31T10:10:23.813Z,16.08
2022-12-31T10:13:10.379Z,14.85
2022-12-31T10:15:48.594Z,13.43
2022-12-31T10:18:54.053Z,13.52
2022-12-31T10:21:51.327Z,12.95
2022-12-31T10:24:54.433Z,13.30
2022-12-31T10:27:45.373Z,13.40
2022-12-31T10:30:18.936Z,12.45
2022-12-31T10:33:18.184Z,13.07
2022-12-31T10:35:59.121Z,13.60
2022-12-31T10:38:38.579Z,13.38
2022-12-31T10:41:40.452Z,13.45
2022-12-31T10:44:45.075Z,12.93
2022-12-31T10:47:34.086Z,16.00
2022-12-31T10:50:16.059Z,11.85
2022-12-31T10:53:01.767Z,15.32
2022-12-31T10:58:07.407Z,11.75
2022-12-31T11:00:45.606Z,11.13
2022-12-31T11:03:38.478Z,12.60
2022-12-31T11:06:30.608Z,14.02
2022-12-31T11:09:13.416Z,13.43
2022-12-31T11:12:16.412Z,12.20
2022-12-31T11:15:02.378Z,11.90
2022-12-31T11:18:25.355Z,12.88
2022-12-31T11:21:37.866Z,11.88
2022-12-31T11:24:25.775Z,12.68
2022-12-31T11:27:18.330Z,11.90
2022-12-31T11:29:56.364Z,10.07
2022-12-31T11:32:39.187Z,13.45
2022-12-31T11:35:15.320Z,13.73
2022-12-31T11:37:58.273Z,13.32
2022-12-31T11:40:33.983Z,13.48
2022-12-31T11:43:24.614Z,11.63
2022-12-31T11:45:58.090Z,13.10
2022-12-31T11:48:59.569Z,17.52
2022-12-31T11:51:39.148Z,14.52
2022-12-31T11:54:37.474Z,11.10
2022-12-31T11:57:33.359Z,14.43
2022-12-31T12:00:22.903Z,13.32
2022-12-31T12:02:59.918Z,11.38
2022-12-31T12:05:28.236Z,12.13
2022-12-31T12:07:56.295Z,11.68
2022-12-31T12:10:35.715Z,11.20
2022-12-31T12:13:23.896Z,11.85
2022-12-31T12:15:55.399Z,12.48
2022-12-31T12:18:25.704Z,11.02
2022-12-31T12:21:00.653Z,11.05
2022-12-31T12:23:28.563Z,15.02
2022-12-31T12:25:56.821Z,13.93
2022-12-31T12:28:28.319Z,14.43
2022-12-31T12:31:04.969Z,14.70
2022-12-31T12:33:43.643Z,13.02
2022-12-31T12:36:14.490Z,14.23
2022-12-31T12:38:42.741Z,12.07
2022-12-31T12:41:21.650Z,12.35
2022-12-31T12:43:50.448Z,11.50
2022-12-31T12:46:19.608Z,10.32
2022-12-31T12:48:49.541Z,8.73
2022-12-31T12:51:55.695Z,10.15
2022-12-31T12:54:36.936Z,11.23
2022-12-31T12:57:34.292Z,10.98
2022-12-31T13:00:29.634Z,8.05
2022-12-31T13:03:19.455Z,8.18
2022-12-31T13:06:06.350Z,10.88
2022-12-31T13:08:52.116Z,11.32
2022-12-31T13:11:59.851Z,8.80
2022-12-31T13:14:46.955Z,12.45
2022-12-31T13:17:40.093Z,8.63
2022-12-31T13:20:47.089Z,10.02
2022-12-31T13:23:39.831Z,8.90
2022-12-31T13:26:19.426Z,9.18
2022-12-31T13:28:49.148Z,9.90
2022-12-31T13:31:26.317Z,7.47
2022-12-31T13:34:01.152Z,9.45
2022-12-31T13:36:32.719Z,7.68
2022-12-31T13:39:05.472Z,8.65
2022-12-31T13:41:49.487Z,8.02
2022-12-31T13:44:41.886Z,8.48
2022-12-31T13:47:31.902Z,7.97
2022-12-31T13:50:14.264Z,8.52
2022-12-31T13:52:48.837Z,7.97
2022-12-31T13:55:32.126Z,8.80
2022-12-31T13:58:14.615Z,8.35
2022-12-31T14:00:58.385Z,7.13
2022-12-31T14:04:04.676Z,8.77
2022-12-31T14:07:09.172Z,9.10
2022-12-31T14:09:37.758Z,7.57
2022-12-31T14:12:26.578Z,7.63
2022-12-31T14:15:03.135Z,7.53
2022-12-31T14:17:48.490Z,6.78
2022-12-31T14:23:06.933Z,7.63
2022-12-31T14:25:56.033Z,6.85
2022-12-31T14:28:30.332Z,6.22
2022-12-31T14:31:19.965Z,6.65
2022-12-31T14:33:54.313Z,9.25
2022-12-31T14:36:34.121Z,8.32
2022-12-31T14:39:31.119Z,10.50
2022-12-31T14:42:21.892Z,6.93
2022-12-31T14:44:56.190Z,6.35
2022-12-31T14:47:30.863Z,6.68
2022-12-31T14:50:04.540Z,6.88
2022-12-31T14:52:35.548Z,6.20
2022-12-31T14:55:08.937Z,6.47
2022-12-31T14:58:16.811Z,6.43
2022-12-31T15:00:26.678Z,6.90
2022-12-31T15:03:00.029Z,6.05
2022-12-31T15:05:36.685Z,6.25
2022-12-31T15:08:40.946Z,8.10
2022-12-31T15:11:24.070Z,9.32
2022-12-31T15:14:36.756Z,8.80
2022-12-31T15:17:15.812Z,6.95
2022-12-31T15:20:01.468Z,7.47
2022-12-31T15:22:48.763Z,7.18
2022-12-31T15:25:28.233Z,5.90
2022-12-31T15:27:58.789Z,6.13
2022-12-31T15:30:39.844Z,7.25
2022-12-31T15:33:17.451Z,5.38
2022-12-31T15:35:51.348Z,7.35
2022-12-31T15:38:29.732Z,6.32
2022-12-31T15:40:59.043Z,6.03
2022-12-31T15:43:31.081Z,5.57
2022-12-31T15:45:59.695Z,5.25
2022-12-31T15:48:37.788Z,5.00
2022-12-31T15:51:05.675Z,7.05
2022-12-31T15:53:38.699Z,5.85
2022-12-31T15:56:12.214Z,6.05
2022-12-31T15:58:40.387Z,5.63
2022-12-31T16:01:20.244Z,7.35
2022-12-31T16:04:05.716Z,5.93
2022-12-31T16:06:37.350Z,6.88
2022-12-31T16:09:09.879Z,9.95
2022-12-31T16:11:41.651Z,5.30
2022-12-31T16:14:20.098Z,8.05
2022-12-31T16:17:00.096Z,5.82
2022-12-31T16:19:32.873Z,5.40
2022-12-31T16:22:13.341Z,6.38
2022-12-31T16:25:02.704Z,5.25
2022-12-31T16:27:30.260Z,7.47
2022-12-31T16:30:04.827Z,5.70
2022-12-31T16:32:38.451Z,4.60
2022-12-31T16:35:34.816Z,5.63
2022-12-31T16:38:03.895Z,6.00
2022-12-31T16:40:31.505Z,5.72
2022-12-31T16:42:59.188Z,4.85
2022-12-31T16:45:34.480Z,7.95
2022-12-31T16:48:17.213Z,5.55
2022-12-31T16:50:48.094Z,5.32
2022-12-31T16:53:19.628Z,6.03
2022-12-31T16:56:11.443Z,10.68
2022-12-31T16:58:45.241Z,6.55
2022-12-31T17:01:23.111Z,7.35
2022-12-31T17:03:58.263Z,8.55
2022-12-31T17:06:28.381Z,5.00
2022-12-31T17:08:55.994Z,6.55
2022-12-31T17:11:42.634Z,5.88
2022-12-31T17:14:10.144Z,6.47
2022-12-31T17:17:01.772Z,10.32
2022-12-31T17:19:36.523Z,7.93
2022-12-31T17:22:07.727Z,7.95
2022-12-31T17:24:36.574Z,6.03
2022-12-31T17:27:06.184Z,8.23
2022-12-31T17:29:34.518Z,6.93
2022-12-31T17:32:05.463Z,7.25
2022-12-31T17:34:40.095Z,7.90
2022-12-31T17:37:09.453Z,6.75
2022-12-31T17:39:52.274Z,6.85
2022-12-31T17:42:36.540Z,8.23
2022-12-31T17:45:20.892Z,10.18
2022-12-31T17:47:52.327Z,6.18
2022-12-31T17:50:26.262Z,6.55
2022-12-31T17:53:00.625Z,7.00
2022-12-31T17:55:29.167Z,6.25
2022-12-31T17:57:57.943Z,7.75
2022-12-31T18:00:27.316Z,6.88
2022-12-31T18:02:54.893Z,13.38
2022-12-31T18:05:24.071Z,10.27
2022-12-31T18:07:52.290Z,7.10
2022-12-31T18:10:22.789Z,8.23
2022-12-31T18:12:51.995Z,11.90
2022-12-31T18:15:24.273Z,11.23
2022-12-31T18:17:51.671Z,12.10
2022-12-31T18:20:19.486Z,9.18
2022-12-31T18:22:47.016Z,13.65
2022-12-31T18:25:19.323Z,16.58
2022-12-31T18:27:48.039Z,13.05
2022-12-31T18:30:18.931Z,11.13
2022-12-31T18:32:46.726Z,13.55
2022-12-31T18:35:40.756Z,13.57
2022-12-31T18:38:11.628Z,6.93
2022-12-31T18:40:42.761Z,11.68
2022-12-31T18:43:18.617Z,10.80
2022-12-31T18:45:46.925Z,13.95
2022-12-31T18:48:15.419Z,15.38
2022-12-31T18:50:43.140Z,12.68
2022-12-31T18:53:19.297Z,15.27
2022-12-31T18:55:50.512Z,20.23
2022-12-31T18:58:18.870Z,13.65
2022-12-31T19:00:47.603Z,19.70
2022-12-31T19:03:21.510Z,22.95
2022-12-31T19:05:51.022Z,16.08
2022-12-31T19:08:22.053Z,18.73
2022-12-31T19:10:51.535Z,19.40
2022-12-31T19:13:20.857Z,14.80
2022-12-31T19:15:52.049Z,14.75
2022-12-31T19:18:19.832Z,20.05
2022-12-31T19:20:48.132Z,15.65
2022-12-31T19:23:18.442Z,10.88
2022-12-31T19:25:47.330Z,18.77
2022-12-31T19:28:23.778Z,14.55
2022-12-31T19:30:52.099Z,13.05
2022-12-31T19:33:20.039Z,14.52
2022-12-31T19:35:48.066Z,14.15
2022-12-31T19:38:23.791Z,15.68
2022-12-31T19:40:53.471Z,15.23
2022-12-31T19:43:22.585Z,12.07
2022-12-31T19:45:51.158Z,12.73
2022-12-31T19:48:24.685Z,9.60
2022-12-31T19:50:56.332Z,14.38
2022-12-31T19:53:26.182Z,13.18
2022-12-31T19:55:54.452Z,14.50
2022-12-31T19:58:26.628Z,13.32
2022-12-31T20:01:01.916Z,10.70
2022-12-31T20:03:32.549Z,10.75
2022-12-31T20:06:10.032Z,12.95
2022-12-31T20:08:38.873Z,15.85
2022-12-31T20:11:15.399Z,12.15
2022-12-31T20:13:43.602Z,11.15
2022-12-31T20:16:19.281Z,15.15
2022-12-31T20:18:47.690Z,7.55
2022-12-31T20:21:19.292Z,11.10
2022-12-31T20:23:48.408Z,10.35
2022-12-31T20:26:16.895Z,8.88
2022-12-31T20:28:44.362Z,10.02
2022-12-31T20:31:14.805Z,10.25
2022-12-31T20:33:42.347Z,9.13
2022-12-31T20:36:13.252Z,9.80
2022-12-31T20:38:41.216Z,9.60
2022-12-31T20:41:13.667Z,8.13
2022-12-31T20:43:42.548Z,11.05
2022-12-31T20:46:22.252Z,13.45
2022-12-31T20:48:52.473Z,10.32
2022-12-31T20:51:21.440Z,8.75
2022-12-31T20:53:51.698Z,8.23
2022-12-31T20:56:19.269Z,10.25
2022-12-31T20:58:47.418Z,9.30
2022-12-31T21:01:16.141Z,11.68
2022-12-31T21:06:34.079Z,12.43
2022-12-31T21:09:02.957Z,8.25
2022-12-31T21:11:49.283Z,8.27
2022-12-31T21:14:16.762Z,9.80
2022-12-31T21:16:45.122Z,8.00
2022-12-31T21:19:12.914Z,7.97
2022-12-31T21:21:40.789Z,8.77
2022-12-31T21:24:08.512Z,8.10
2022-12-31T21:26:36.252Z,7.15
2022-12-31T21:29:03.625Z,9.27
2022-12-31T21:31:31.234Z,6.40
2022-12-31T21:33:58.695Z,8.40
2022-12-31T21:36:26.323Z,7.28
2022-12-31T21:38:53.837Z,11.32
2022-12-31T21:41:40.781Z,5.85
2022-12-31T21:44:10.457Z,7.63
2022-12-31T21:46:54.513Z,8.70
2022-12-31T21:49:27.620Z,7.53
2022-12-31T21:52:14.035Z,7.20
2022-12-31T21:54:59.916Z,8.30
2022-12-31T21:57:27.522Z,7.70
2022-12-31T22:00:41.260Z,9.25
2022-12-31T22:03:20.615Z,7.20
2022-12-31T22:05:52.021Z,6.57
2022-12-31T22:08:22.069Z,7.90
2022-12-31T22:10:52.738Z,6.90
2022-12-31T22:13:21.116Z,6.80
2022-12-31T22:15:52.689Z,5.63
2022-12-31T22:18:21.269Z,5.97
2022-12-31T22:20:49.084Z,6.45
2022-12-31T22:23:16.767Z,6.75
2022-12-31T22:25:44.839Z,6.93
2022-12-31T22:28:37.543Z,6.25
2022-12-31T22:31:00.749Z,7.20
2022-12-31T22:33:28.364Z,7.40
2022-12-31T22:36:07.242Z,6.05
2022-12-31T22:38:34.963Z,6.63
2022-12-31T22:41:05.533Z,5.32
2022-12-31T22:43:35.570Z,6.00
2022-12-31T22:46:11.679Z,7.35
2022-12-31T22:48:40.203Z,8.15
2022-12-31T22:51:09.071Z,6.82
2022-12-31T22:53:39.580Z,7.30
2022-12-31T22:56:09.691Z,5.47
2022-12-31T22:58:37.532Z,6.18
2022-12-31T23:01:29.311Z,7.15
2022-12-31T23:03:57.519Z,7.22
2022-12-31T23:06:25.175Z,7.10
2022-12-31T23:09:11.883Z,6.55
2022-12-31T23:11:40.322Z,7.47
2022-12-31T23:14:29.897Z,6.05
2022-12-31T23:17:31.313Z,7.38
2022-12-31T23:20:19.354Z,7.70
2022-12-31T23:23:07.813Z,6.22
2022-12-31T23:25:46.977Z,7.30
2022-12-31T23:28:23.249Z,8.20
2022-12-31T23:30:51.828Z,9.40
2022-12-31T23:33:23.016Z,8.35
2022-12-31T23:35:50.826Z,8.48
2022-12-31T23:38:18.915Z,7.40
2022-12-31T23:40:47.187Z,7.60
2022-12-31T23:43:23.222Z,9.20
2022-12-31T23:45:51.776Z,8.15
2022-12-31T23:48:19.544Z,9.10
2022-12-31T23:50:53.837Z,10.48
2022-12-31T23:53:25.270Z,9.02
2022-12-31T23:55:53.314Z,9.77
2022-12-31T23:58:22.158Z,7.70
